sensor_id;sensor_type;location;lat;lon;timestamp;temperature;humidity
19862;DHT22;10093;48.148;8.542;2022-08-18T00:00:13;14.50;99.90
19862;DHT22;10093;48.148;8.542;2022-08-18T00:02:41;14.60;99.90
19862;DHT22;10093;48.148;8.542;2022-08-18T00:05:09;14.60;99.90
19862;DHT22;10093;48.148;8.542;2022-08-18T00:07:37;14.60;99.90
19862;DHT22;10093;48.148;8.542;2022-08-18T00:10:05;14.60;99.90
19862;DHT22;10093;48.148;8.542;2022-08-18T00:12:38;14.50;99.90
19862;DHT22;10093;48.148;8.542;2022-08-18T00:15:07;14.50;99.90
19862;DHT22;10093;48.148;8.542;2022-08-18T00:17:34;14.50;99.90
19862;DHT22;10093;48.148;8.542;2022-08-18T00:20:02;14.50;99.90
19862;DHT22;10093;48.148;8.542;2022-08-18T00:22:28;14.70;99.90
19862;DHT22;10093;48.148;8.542;2022-08-18T00:24:56;14.60;99.90
19862;DHT22;10093;48.148;8.542;2022-08-18T00:27:27;14.60;99.90
19862;DHT22;10093;48.148;8.542;2022-08-18T00:29:54;14.80;99.90
19862;DHT22;10093;48.148;8.542;2022-08-18T00:32:24;14.90;99.90
19862;DHT22;10093;48.148;8.542;2022-08-18T00:34:50;15.00;99.90
19862;DHT22;10093;48.148;8.542;2022-08-18T00:37:16;15.00;99.90
19862;DHT22;10093;48.148;8.542;2022-08-18T00:39:42;14.90;99.90
19862;DHT22;10093;48.148;8.542;2022-08-18T00:42:17;14.80;99.90
19862;DHT22;10093;48.148;8.542;2022-08-18T00:44:43;14.80;99.90
19862;DHT22;10093;48.148;8.542;2022-08-18T00:47:09;14.80;99.90
19862;DHT22;10093;48.148;8.542;2022-08-18T00:49:36;14.70;99.90
19862;DHT22;10093;48.148;8.542;2022-08-18T00:52:03;14.70;99.90
19862;DHT22;10093;48.148;8.542;2022-08-18T00:54:30;14.80;99.90
19862;DHT22;10093;48.148;8.542;2022-08-18T00:57:00;14.70;99.90
19862;DHT22;10093;48.148;8.542;2022-08-18T00:59:57;14.70;99.90
19862;DHT22;10093;48.148;8.542;2022-08-18T01:02:32;14.70;99.90
19862;DHT22;10093;48.148;8.542;2022-08-18T01:05:37;14.80;99.90
19862;DHT22;10093;48.148;8.542;2022-08-18T01:07:55;14.90;99.90
19862;DHT22;10093;48.148;8.542;2022-08-18T01:10:22;14.90;99.90
19862;DHT22;10093;48.148;8.542;2022-08-18T01:12:54;14.80;99.90
19862;DHT22;10093;48.148;8.542;2022-08-18T01:15:21;14.70;99.90
19862;DHT22;10093;48.148;8.542;2022-08-18T01:17:47;14.70;99.90
19862;DHT22;10093;48.148;8.542;2022-08-18T01:20:35;14.80;99.90
19862;DHT22;10093;48.148;8.542;2022-08-18T01:23:21;14.70;99.90
19862;DHT22;10093;48.148;8.542;2022-08-18T01:25:48;14.80;99.90
19862;DHT22;10093;48.148;8.542;2022-08-18T01:28:25;14.90;99.90
19862;DHT22;10093;48.148;8.542;2022-08-18T01:30:54;15.20;99.90
19862;DHT22;10093;48.148;8.542;2022-08-18T01:33:27;15.20;99.90
19862;DHT22;10093;48.148;8.542;2022-08-18T01:35:57;15.20;99.90
19862;DHT22;10093;48.148;8.542;2022-08-18T01:38:23;15.30;99.90
19862;DHT22;10093;48.148;8.542;2022-08-18T01:40:49;15.20;99.90
19862;DHT22;10093;48.148;8.542;2022-08-18T01:43:16;15.20;99.90
19862;DHT22;10093;48.148;8.542;2022-08-18T01:45:42;15.00;99.90
19862;DHT22;10093;48.148;8.542;2022-08-18T01:48:08;15.00;99.90
19862;DHT22;10093;48.148;8.542;2022-08-18T01:50:35;15.10;99.90
19862;DHT22;10093;48.148;8.542;2022-08-18T01:53:02;15.00;99.90
19862;DHT22;10093;48.148;8.542;2022-08-18T01:55:31;14.90;99.90
19862;DHT22;10093;48.148;8.542;2022-08-18T01:57:57;14.90;99.90
19862;DHT22;10093;48.148;8.542;2022-08-18T02:00:23;14.80;99.90
19862;DHT22;10093;48.148;8.542;2022-08-18T02:02:50;14.80;99.90
19862;DHT22;10093;48.148;8.542;2022-08-18T02:05:19;14.80;99.90
19862;DHT22;10093;48.148;8.542;2022-08-18T02:07:48;14.80;99.90
19862;DHT22;10093;48.148;8.542;2022-08-18T02:10:13;14.70;99.90
19862;DHT22;10093;48.148;8.542;2022-08-18T02:12:40;14.70;99.90
19862;DHT22;10093;48.148;8.542;2022-08-18T02:15:07;14.80;99.90
19862;DHT22;10093;48.148;8.542;2022-08-18T02:17:40;14.80;99.90
19862;DHT22;10093;48.148;8.542;2022-08-18T02:20:08;14.90;99.90
19862;DHT22;10093;48.148;8.542;2022-08-18T02:22:35;14.80;99.90
19862;DHT22;10093;48.148;8.542;2022-08-18T02:25:01;14.80;99.90
19862;DHT22;10093;48.148;8.542;2022-08-18T02:27:27;14.70;99.90
19862;DHT22;10093;48.148;8.542;2022-08-18T02:29:53;14.80;99.90
19862;DHT22;10093;48.148;8.542;2022-08-18T02:32:18;15.10;99.90
19862;DHT22;10093;48.148;8.542;2022-08-18T02:34:45;15.20;99.90
19862;DHT22;10093;48.148;8.542;2022-08-18T02:37:10;15.30;99.90
19862;DHT22;10093;48.148;8.542;2022-08-18T02:39:37;15.30;99.90
19862;DHT22;10093;48.148;8.542;2022-08-18T02:42:06;15.20;99.90
19862;DHT22;10093;48.148;8.542;2022-08-18T02:44:32;15.10;99.90
19862;DHT22;10093;48.148;8.542;2022-08-18T02:46:58;15.10;99.90
19862;DHT22;10093;48.148;8.542;2022-08-18T02:49:24;15.00;99.90
19862;DHT22;10093;48.148;8.542;2022-08-18T02:51:52;15.00;99.90
19862;DHT22;10093;48.148;8.542;2022-08-18T02:54:20;15.00;99.90
19862;DHT22;10093;48.148;8.542;2022-08-18T02:56:48;15.10;99.90
19862;DHT22;10093;48.148;8.542;2022-08-18T02:59:18;15.30;99.90
19862;DHT22;10093;48.148;8.542;2022-08-18T03:01:47;15.50;99.90
19862;DHT22;10093;48.148;8.542;2022-08-18T03:04:16;15.50;99.90
19862;DHT22;10093;48.148;8.542;2022-08-18T03:06:44;15.50;99.90
19862;DHT22;10093;48.148;8.542;2022-08-18T03:09:12;15.50;99.90
19862;DHT22;10093;48.148;8.542;2022-08-18T03:11:38;15.30;99.90
19862;DHT22;10093;48.148;8.542;2022-08-18T03:14:04;15.20;99.90
19862;DHT22;10093;48.148;8.542;2022-08-18T03:16:30;15.10;99.90
19862;DHT22;10093;48.148;8.542;2022-08-18T03:18:58;15.10;99.90
19862;DHT22;10093;48.148;8.542;2022-08-18T03:21:25;15.00;99.90
19862;DHT22;10093;48.148;8.542;2022-08-18T03:23:53;15.00;99.90
19862;DHT22;10093;48.148;8.542;2022-08-18T03:26:19;15.00;99.90
19862;DHT22;10093;48.148;8.542;2022-08-18T03:28:47;15.00;99.90
19862;DHT22;10093;48.148;8.542;2022-08-18T03:31:14;15.00;99.90
19862;DHT22;10093;48.148;8.542;2022-08-18T03:33:40;15.20;99.90
19862;DHT22;10093;48.148;8.542;2022-08-18T03:36:14;15.30;99.90
19862;DHT22;10093;48.148;8.542;2022-08-18T03:38:42;15.30;99.90
19862;DHT22;10093;48.148;8.542;2022-08-18T03:41:09;15.30;99.90
19862;DHT22;10093;48.148;8.542;2022-08-18T03:43:35;15.20;99.90
19862;DHT22;10093;48.148;8.542;2022-08-18T03:46:05;15.30;99.90
19862;DHT22;10093;48.148;8.542;2022-08-18T03:48:31;15.30;99.90
19862;DHT22;10093;48.148;8.542;2022-08-18T03:51:05;15.20;99.90
19862;DHT22;10093;48.148;8.542;2022-08-18T03:53:33;15.20;99.90
19862;DHT22;10093;48.148;8.542;2022-08-18T03:55:59;15.10;99.90
19862;DHT22;10093;48.148;8.542;2022-08-18T03:58:25;15.00;99.90
19862;DHT22;10093;48.148;8.542;2022-08-18T04:00:51;15.00;99.90
19862;DHT22;10093;48.148;8.542;2022-08-18T04:03:16;15.00;99.90
19862;DHT22;10093;48.148;8.542;2022-08-18T04:05:42;15.00;99.90
19862;DHT22;10093;48.148;8.542;2022-08-18T04:08:07;15.00;99.90
19862;DHT22;10093;48.148;8.542;2022-08-18T04:10:33;14.90;99.90
19862;DHT22;10093;48.148;8.542;2022-08-18T04:13:00;14.90;99.90
19862;DHT22;10093;48.148;8.542;2022-08-18T04:15:30;14.90;99.90
19862;DHT22;10093;48.148;8.542;2022-08-18T04:18:00;14.90;99.90
19862;DHT22;10093;48.148;8.542;2022-08-18T04:20:29;14.90;99.90
19862;DHT22;10093;48.148;8.542;2022-08-18T04:22:57;15.00;99.90
19862;DHT22;10093;48.148;8.542;2022-08-18T04:25:22;15.20;99.90
19862;DHT22;10093;48.148;8.542;2022-08-18T04:27:48;15.40;99.90
19862;DHT22;10093;48.148;8.542;2022-08-18T04:30:13;15.30;99.90
19862;DHT22;10093;48.148;8.542;2022-08-18T04:32:39;15.20;99.90
19862;DHT22;10093;48.148;8.542;2022-08-18T04:35:05;15.20;99.90
19862;DHT22;10093;48.148;8.542;2022-08-18T04:37:31;15.10;99.90
19862;DHT22;10093;48.148;8.542;2022-08-18T04:39:57;15.10;99.90
19862;DHT22;10093;48.148;8.542;2022-08-18T04:42:24;15.10;99.90
19862;DHT22;10093;48.148;8.542;2022-08-18T04:44:50;15.10;99.90
19862;DHT22;10093;48.148;8.542;2022-08-18T04:47:16;15.10;99.90
19862;DHT22;10093;48.148;8.542;2022-08-18T04:49:41;15.10;99.90
19862;DHT22;10093;48.148;8.542;2022-08-18T04:52:09;15.10;99.90
19862;DHT22;10093;48.148;8.542;2022-08-18T04:54:53;15.10;99.90
19862;DHT22;10093;48.148;8.542;2022-08-18T04:57:19;15.20;99.90
19862;DHT22;10093;48.148;8.542;2022-08-18T04:59:47;15.20;99.90
19862;DHT22;10093;48.148;8.542;2022-08-18T05:02:14;15.20;99.90
19862;DHT22;10093;48.148;8.542;2022-08-18T05:04:42;15.20;99.90
19862;DHT22;10093;48.148;8.542;2022-08-18T05:07:12;15.20;99.90
19862;DHT22;10093;48.148;8.542;2022-08-18T05:09:38;15.10;99.90
19862;DHT22;10093;48.148;8.542;2022-08-18T05:12:07;15.10;99.90
19862;DHT22;10093;48.148;8.542;2022-08-18T05:14:33;15.00;99.90
19862;DHT22;10093;48.148;8.542;2022-08-18T05:17:01;15.00;99.90
19862;DHT22;10093;48.148;8.542;2022-08-18T05:19:28;15.20;99.90
19862;DHT22;10093;48.148;8.542;2022-08-18T05:21:55;15.50;99.90
19862;DHT22;10093;48.148;8.542;2022-08-18T05:24:22;15.70;99.90
19862;DHT22;10093;48.148;8.542;2022-08-18T05:26:50;15.80;99.90
19862;DHT22;10093;48.148;8.542;2022-08-18T05:29:17;15.70;99.90
19862;DHT22;10093;48.148;8.542;2022-08-18T05:31:43;16.00;99.90
19862;DHT22;10093;48.148;8.542;2022-08-18T05:34:09;16.00;99.90
19862;DHT22;10093;48.148;8.542;2022-08-18T05:37:00;16.00;99.90
19862;DHT22;10093;48.148;8.542;2022-08-18T05:42:07;15.80;99.90
19862;DHT22;10093;48.148;8.542;2022-08-18T05:44:36;15.80;99.90
19862;DHT22;10093;48.148;8.542;2022-08-18T05:47:10;15.70;99.90
19862;DHT22;10093;48.148;8.542;2022-08-18T05:49:37;15.60;99.90
19862;DHT22;10093;48.148;8.542;2022-08-18T05:52:11;15.90;99.90
19862;DHT22;10093;48.148;8.542;2022-08-18T05:54:42;16.10;99.90
19862;DHT22;10093;48.148;8.542;2022-08-18T05:58:02;16.10;99.90
19862;DHT22;10093;48.148;8.542;2022-08-18T06:00:30;16.30;99.90
19862;DHT22;10093;48.148;8.542;2022-08-18T06:03:00;16.40;99.90
19862;DHT22;10093;48.148;8.542;2022-08-18T06:07:58;16.40;99.90
19862;DHT22;10093;48.148;8.542;2022-08-18T06:10:25;16.40;99.90
19862;DHT22;10093;48.148;8.542;2022-08-18T06:12:55;16.40;99.90
19862;DHT22;10093;48.148;8.542;2022-08-18T06:15:26;16.30;99.90
19862;DHT22;10093;48.148;8.542;2022-08-18T06:18:05;16.20;99.90
19862;DHT22;10093;48.148;8.542;2022-08-18T06:20:35;16.20;99.90
19862;DHT22;10093;48.148;8.542;2022-08-18T06:23:26;16.30;99.90
19862;DHT22;10093;48.148;8.542;2022-08-18T06:37:56;16.40;99.90
19862;DHT22;10093;48.148;8.542;2022-08-18T06:40:41;16.40;99.90
19862;DHT22;10093;48.148;8.542;2022-08-18T06:43:12;16.40;99.90
19862;DHT22;10093;48.148;8.542;2022-08-18T06:45:40;16.60;99.90
19862;DHT22;10093;48.148;8.542;2022-08-18T06:50:57;16.90;99.90
19862;DHT22;10093;48.148;8.542;2022-08-18T06:59:33;17.70;99.90
19862;DHT22;10093;48.148;8.542;2022-08-18T07:02:19;18.00;99.90
19862;DHT22;10093;48.148;8.542;2022-08-18T07:05:06;18.30;99.90
19862;DHT22;10093;48.148;8.542;2022-08-18T07:07:37;18.70;99.90
19862;DHT22;10093;48.148;8.542;2022-08-18T07:10:31;19.00;99.90
19862;DHT22;10093;48.148;8.542;2022-08-18T07:13:07;19.10;99.90
19862;DHT22;10093;48.148;8.542;2022-08-18T07:15:32;19.60;99.90
19862;DHT22;10093;48.148;8.542;2022-08-18T07:18:06;20.60;99.90
19862;DHT22;10093;48.148;8.542;2022-08-18T07:20:48;21.30;99.90
19862;DHT22;10093;48.148;8.542;2022-08-18T07:23:26;21.20;99.90
19862;DHT22;10093;48.148;8.542;2022-08-18T07:28:32;21.70;99.90
19862;DHT22;10093;48.148;8.542;2022-08-18T07:33:40;24.40;99.90
19862;DHT22;10093;48.148;8.542;2022-08-18T07:36:08;25.40;99.90
19862;DHT22;10093;48.148;8.542;2022-08-18T07:41:13;24.90;99.90
19862;DHT22;10093;48.148;8.542;2022-08-18T07:48:57;27.80;99.90
19862;DHT22;10093;48.148;8.542;2022-08-18T07:51:46;27.60;99.90
19862;DHT22;10093;48.148;8.542;2022-08-18T07:54:37;26.20;99.90
19862;DHT22;10093;48.148;8.542;2022-08-18T08:00:13;23.40;99.90
19862;DHT22;10093;48.148;8.542;2022-08-18T08:08:28;20.70;99.90
19862;DHT22;10093;48.148;8.542;2022-08-18T08:11:31;20.70;99.90
19862;DHT22;10093;48.148;8.542;2022-08-18T08:16:55;22.50;99.90
19862;DHT22;10093;48.148;8.542;2022-08-18T08:22:36;27.10;99.90
19862;DHT22;10093;48.148;8.542;2022-08-18T08:30:23;26.90;99.90
19862;DHT22;10093;48.148;8.542;2022-08-18T08:35:50;21.00;99.90
19862;DHT22;10093;48.148;8.542;2022-08-18T08:38:22;20.50;99.90
19862;DHT22;10093;48.148;8.542;2022-08-18T08:40:56;20.80;99.90
19862;DHT22;10093;48.148;8.542;2022-08-18T08:43:29;21.50;99.90
19862;DHT22;10093;48.148;8.542;2022-08-18T08:46:09;22.50;99.90
19862;DHT22;10093;48.148;8.542;2022-08-18T08:48:40;23.60;99.90
19862;DHT22;10093;48.148;8.542;2022-08-18T08:51:40;23.90;99.90
19862;DHT22;10093;48.148;8.542;2022-08-18T08:54:30;23.60;99.90
19862;DHT22;10093;48.148;8.542;2022-08-18T08:57:00;23.90;99.90
19862;DHT22;10093;48.148;8.542;2022-08-18T08:59:26;25.40;99.90
19862;DHT22;10093;48.148;8.542;2022-08-18T09:05:10;25.70;99.90
19862;DHT22;10093;48.148;8.542;2022-08-18T09:10:21;25.60;99.90
19862;DHT22;10093;48.148;8.542;2022-08-18T09:18:47;23.20;99.90
19862;DHT22;10093;48.148;8.542;2022-08-18T09:23:52;22.60;99.90
19862;DHT22;10093;48.148;8.542;2022-08-18T09:28:59;22.40;99.90
19862;DHT22;10093;48.148;8.542;2022-08-18T09:31:35;22.50;99.90
19862;DHT22;10093;48.148;8.542;2022-08-18T09:34:29;22.30;99.90
19862;DHT22;10093;48.148;8.542;2022-08-18T09:37:18;22.20;99.90
19862;DHT22;10093;48.148;8.542;2022-08-18T09:43:09;22.90;99.90
19862;DHT22;10093;48.148;8.542;2022-08-18T09:45:40;22.50;99.90
19862;DHT22;10093;48.148;8.542;2022-08-18T09:50:59;22.50;99.90
19862;DHT22;10093;48.148;8.542;2022-08-18T09:56:01;21.90;99.90
19862;DHT22;10093;48.148;8.542;2022-08-18T10:01:19;23.30;99.90
19862;DHT22;10093;48.148;8.542;2022-08-18T10:06:44;25.70;99.90
19862;DHT22;10093;48.148;8.542;2022-08-18T10:14:44;25.90;99.90
19862;DHT22;10093;48.148;8.542;2022-08-18T10:17:55;26.40;99.90
19862;DHT22;10093;48.148;8.542;2022-08-18T10:23:06;24.30;99.90
19862;DHT22;10093;48.148;8.542;2022-08-18T10:28:02;22.90;99.90
19862;DHT22;10093;48.148;8.542;2022-08-18T10:36:31;22.80;99.90
19862;DHT22;10093;48.148;8.542;2022-08-18T10:38:57;22.80;99.90
19862;DHT22;10093;48.148;8.542;2022-08-18T10:41:29;23.20;99.90
19862;DHT22;10093;48.148;8.542;2022-08-18T10:43:58;23.30;99.90
19862;DHT22;10093;48.148;8.542;2022-08-18T10:46:31;23.10;99.90
19862;DHT22;10093;48.148;8.542;2022-08-18T10:49:19;23.90;99.90
19862;DHT22;10093;48.148;8.542;2022-08-18T10:52:13;23.40;99.90
19862;DHT22;10093;48.148;8.542;2022-08-18T11:00:07;23.60;99.90
19862;DHT22;10093;48.148;8.542;2022-08-18T11:05:27;23.50;99.90
19862;DHT22;10093;48.148;8.542;2022-08-18T11:08:05;23.10;99.90
19862;DHT22;10093;48.148;8.542;2022-08-18T11:10:45;22.60;99.90
19862;DHT22;10093;48.148;8.542;2022-08-18T11:14:21;23.00;99.90
19862;DHT22;10093;48.148;8.542;2022-08-18T11:19:14;23.50;99.90
19862;DHT22;10093;48.148;8.542;2022-08-18T11:21:43;24.50;99.90
19862;DHT22;10093;48.148;8.542;2022-08-18T11:24:17;23.50;99.90
19862;DHT22;10093;48.148;8.542;2022-08-18T11:26:53;22.90;99.90
19862;DHT22;10093;48.148;8.542;2022-08-18T11:29:32;23.20;99.90
19862;DHT22;10093;48.148;8.542;2022-08-18T11:34:45;23.00;99.90
19862;DHT22;10093;48.148;8.542;2022-08-18T11:37:25;23.30;99.90
19862;DHT22;10093;48.148;8.542;2022-08-18T11:39:54;22.70;99.90
19862;DHT22;10093;48.148;8.542;2022-08-18T11:42:28;23.30;99.90
19862;DHT22;10093;48.148;8.542;2022-08-18T11:45:00;23.00;99.90
19862;DHT22;10093;48.148;8.542;2022-08-18T11:47:26;22.60;99.90
19862;DHT22;10093;48.148;8.542;2022-08-18T11:52:28;23.60;99.90
19862;DHT22;10093;48.148;8.542;2022-08-18T11:55:03;23.90;99.90
19862;DHT22;10093;48.148;8.542;2022-08-18T11:57:32;24.10;99.90
19862;DHT22;10093;48.148;8.542;2022-08-18T12:00:41;24.10;99.90
19862;DHT22;10093;48.148;8.542;2022-08-18T12:03:15;24.00;99.90
19862;DHT22;10093;48.148;8.542;2022-08-18T12:05:50;23.70;99.90
19862;DHT22;10093;48.148;8.542;2022-08-18T12:08:46;23.10;99.90
19862;DHT22;10093;48.148;8.542;2022-08-18T12:11:24;23.10;99.90
19862;DHT22;10093;48.148;8.542;2022-08-18T12:14:09;23.10;99.90
19862;DHT22;10093;48.148;8.542;2022-08-18T12:16:42;23.10;99.90
19862;DHT22;10093;48.148;8.542;2022-08-18T12:19:11;22.50;99.90
19862;DHT22;10093;48.148;8.542;2022-08-18T12:21:38;22.80;99.90
19862;DHT22;10093;48.148;8.542;2022-08-18T12:24:20;22.40;99.90
19862;DHT22;10093;48.148;8.542;2022-08-18T12:26:46;22.10;99.90
19862;DHT22;10093;48.148;8.542;2022-08-18T12:29:12;21.70;99.90
19862;DHT22;10093;48.148;8.542;2022-08-18T12:31:38;21.80;99.90
19862;DHT22;10093;48.148;8.542;2022-08-18T12:34:04;21.50;99.90
19862;DHT22;10093;48.148;8.542;2022-08-18T12:36:30;21.90;99.90
19862;DHT22;10093;48.148;8.542;2022-08-18T12:38:56;22.00;99.90
19862;DHT22;10093;48.148;8.542;2022-08-18T12:41:22;22.30;99.90
19862;DHT22;10093;48.148;8.542;2022-08-18T12:43:48;22.20;99.90
19862;DHT22;10093;48.148;8.542;2022-08-18T12:46:14;22.40;99.90
19862;DHT22;10093;48.148;8.542;2022-08-18T12:48:40;21.90;99.90
19862;DHT22;10093;48.148;8.542;2022-08-18T12:51:06;21.90;99.90
19862;DHT22;10093;48.148;8.542;2022-08-18T12:53:32;21.90;99.90
19862;DHT22;10093;48.148;8.542;2022-08-18T12:55:59;21.80;99.90
19862;DHT22;10093;48.148;8.542;2022-08-18T12:58:25;21.90;99.90
19862;DHT22;10093;48.148;8.542;2022-08-18T13:00:51;22.00;99.90
19862;DHT22;10093;48.148;8.542;2022-08-18T13:03:17;21.80;99.90
19862;DHT22;10093;48.148;8.542;2022-08-18T13:05:45;21.60;99.90
19862;DHT22;10093;48.148;8.542;2022-08-18T13:08:19;21.60;99.90
19862;DHT22;10093;48.148;8.542;2022-08-18T13:10:46;21.70;99.90
19862;DHT22;10093;48.148;8.542;2022-08-18T13:13:17;22.00;99.90
19862;DHT22;10093;48.148;8.542;2022-08-18T13:15:44;22.60;99.90
19862;DHT22;10093;48.148;8.542;2022-08-18T13:18:10;22.90;99.90
19862;DHT22;10093;48.148;8.542;2022-08-18T13:20:36;23.10;99.90
19862;DHT22;10093;48.148;8.542;2022-08-18T13:23:02;22.80;99.90
19862;DHT22;10093;48.148;8.542;2022-08-18T13:25:28;22.80;99.90
19862;DHT22;10093;48.148;8.542;2022-08-18T13:27:53;22.90;99.90
19862;DHT22;10093;48.148;8.542;2022-08-18T13:30:21;22.80;99.90
19862;DHT22;10093;48.148;8.542;2022-08-18T13:32:47;22.50;99.90
19862;DHT22;10093;48.148;8.542;2022-08-18T13:35:13;22.50;99.90
19862;DHT22;10093;48.148;8.542;2022-08-18T13:37:38;22.30;99.90
19862;DHT22;10093;48.148;8.542;2022-08-18T13:40:07;22.40;99.90
19862;DHT22;10093;48.148;8.542;2022-08-18T13:42:44;22.60;99.90
19862;DHT22;10093;48.148;8.542;2022-08-18T13:45:15;22.60;99.90
19862;DHT22;10093;48.148;8.542;2022-08-18T13:47:41;22.80;99.90
19862;DHT22;10093;48.148;8.542;2022-08-18T13:50:07;22.90;99.90
19862;DHT22;10093;48.148;8.542;2022-08-18T13:52:35;22.70;99.90
19862;DHT22;10093;48.148;8.542;2022-08-18T13:55:01;22.60;99.90
19862;DHT22;10093;48.148;8.542;2022-08-18T13:57:28;22.40;99.90
19862;DHT22;10093;48.148;8.542;2022-08-18T13:59:56;22.10;99.90
19862;DHT22;10093;48.148;8.542;2022-08-18T14:02:22;21.80;99.90
19862;DHT22;10093;48.148;8.542;2022-08-18T14:04:47;21.60;99.90
19862;DHT22;10093;48.148;8.542;2022-08-18T14:07:13;21.50;99.90
19862;DHT22;10093;48.148;8.542;2022-08-18T14:09:42;21.40;99.90
19862;DHT22;10093;48.148;8.542;2022-08-18T14:12:19;21.10;99.90
19862;DHT22;10093;48.148;8.542;2022-08-18T14:14:45;21.10;99.90
19862;DHT22;10093;48.148;8.542;2022-08-18T14:17:11;21.20;99.90
19862;DHT22;10093;48.148;8.542;2022-08-18T14:19:36;21.00;99.90
19862;DHT22;10093;48.148;8.542;2022-08-18T14:22:21;21.10;99.90
19862;DHT22;10093;48.148;8.542;2022-08-18T14:25:05;21.20;99.90
19862;DHT22;10093;48.148;8.542;2022-08-18T14:27:49;21.30;99.90
19862;DHT22;10093;48.148;8.542;2022-08-18T14:30:15;21.20;99.90
19862;DHT22;10093;48.148;8.542;2022-08-18T14:32:43;21.10;99.90
19862;DHT22;10093;48.148;8.542;2022-08-18T14:35:11;20.90;99.90
19862;DHT22;10093;48.148;8.542;2022-08-18T14:37:38;20.70;99.90
19862;DHT22;10093;48.148;8.542;2022-08-18T14:40:05;20.60;99.90
19862;DHT22;10093;48.148;8.542;2022-08-18T14:42:32;20.50;99.90
19862;DHT22;10093;48.148;8.542;2022-08-18T14:44:58;20.30;99.90
19862;DHT22;10093;48.148;8.542;2022-08-18T14:47:24;20.00;99.90
19862;DHT22;10093;48.148;8.542;2022-08-18T14:49:53;20.30;99.90
19862;DHT22;10093;48.148;8.542;2022-08-18T14:52:19;20.40;99.90
19862;DHT22;10093;48.148;8.542;2022-08-18T14:54:48;20.50;99.90
19862;DHT22;10093;48.148;8.542;2022-08-18T14:57:13;20.60;99.90
19862;DHT22;10093;48.148;8.542;2022-08-18T14:59:39;20.60;99.90
19862;DHT22;10093;48.148;8.542;2022-08-18T15:02:06;20.70;99.90
19862;DHT22;10093;48.148;8.542;2022-08-18T15:04:33;20.30;99.90
19862;DHT22;10093;48.148;8.542;2022-08-18T15:06:59;19.90;99.90
19862;DHT22;10093;48.148;8.542;2022-08-18T15:09:25;19.70;99.90
19862;DHT22;10093;48.148;8.542;2022-08-18T15:11:50;19.60;99.90
19862;DHT22;10093;48.148;8.542;2022-08-18T15:14:17;19.60;99.90
19862;DHT22;10093;48.148;8.542;2022-08-18T15:16:42;19.60;99.90
19862;DHT22;10093;48.148;8.542;2022-08-18T15:19:08;19.60;99.90
19862;DHT22;10093;48.148;8.542;2022-08-18T15:21:34;19.40;99.90
19862;DHT22;10093;48.148;8.542;2022-08-18T15:24:18;19.30;99.90
19862;DHT22;10093;48.148;8.542;2022-08-18T15:27:03;19.30;99.90
19862;DHT22;10093;48.148;8.542;2022-08-18T15:29:29;19.30;99.90
19862;DHT22;10093;48.148;8.542;2022-08-18T15:31:55;19.40;99.90
19862;DHT22;10093;48.148;8.542;2022-08-18T15:34:22;19.80;99.90
19862;DHT22;10093;48.148;8.542;2022-08-18T15:36:48;20.00;99.90
19862;DHT22;10093;48.148;8.542;2022-08-18T15:39:14;20.00;99.90
19862;DHT22;10093;48.148;8.542;2022-08-18T15:41:42;19.90;99.90
19862;DHT22;10093;48.148;8.542;2022-08-18T15:44:11;20.10;99.90
19862;DHT22;10093;48.148;8.542;2022-08-18T15:46:37;20.30;99.90
19862;DHT22;10093;48.148;8.542;2022-08-18T15:49:04;20.40;99.90
19862;DHT22;10093;48.148;8.542;2022-08-18T15:51:33;20.50;99.90
19862;DHT22;10093;48.148;8.542;2022-08-18T15:53:58;20.30;99.90
19862;DHT22;10093;48.148;8.542;2022-08-18T15:56:24;20.60;99.90
19862;DHT22;10093;48.148;8.542;2022-08-18T15:58:51;20.80;99.90
19862;DHT22;10093;48.148;8.542;2022-08-18T16:01:18;20.90;99.90
19862;DHT22;10093;48.148;8.542;2022-08-18T16:03:46;20.90;99.90
19862;DHT22;10093;48.148;8.542;2022-08-18T16:06:20;21.00;99.90
19862;DHT22;10093;48.148;8.542;2022-08-18T16:08:48;21.00;99.90
19862;DHT22;10093;48.148;8.542;2022-08-18T16:11:14;20.90;99.90
19862;DHT22;10093;48.148;8.542;2022-08-18T16:13:40;20.70;99.90
19862;DHT22;10093;48.148;8.542;2022-08-18T16:16:17;20.50;99.90
19862;DHT22;10093;48.148;8.542;2022-08-18T16:18:43;20.70;99.90
19862;DHT22;10093;48.148;8.542;2022-08-18T16:21:16;20.60;99.90
19862;DHT22;10093;48.148;8.542;2022-08-18T16:23:43;20.70;99.90
19862;DHT22;10093;48.148;8.542;2022-08-18T16:26:10;20.70;99.90
19862;DHT22;10093;48.148;8.542;2022-08-18T16:28:40;20.50;99.90
19862;DHT22;10093;48.148;8.542;2022-08-18T16:31:07;20.30;99.90
19862;DHT22;10093;48.148;8.542;2022-08-18T16:33:33;20.30;99.90
19862;DHT22;10093;48.148;8.542;2022-08-18T16:36:03;20.30;99.90
19862;DHT22;10093;48.148;8.542;2022-08-18T16:38:31;20.20;99.90
19862;DHT22;10093;48.148;8.542;2022-08-18T16:41:06;20.00;99.90
19862;DHT22;10093;48.148;8.542;2022-08-18T16:43:32;19.90;99.90
19862;DHT22;10093;48.148;8.542;2022-08-18T16:45:58;19.80;99.90
19862;DHT22;10093;48.148;8.542;2022-08-18T16:48:26;19.90;99.90
19862;DHT22;10093;48.148;8.542;2022-08-18T16:50:51;19.80;99.90
19862;DHT22;10093;48.148;8.542;2022-08-18T16:53:17;19.50;99.90
19862;DHT22;10093;48.148;8.542;2022-08-18T16:55:43;19.30;99.90
19862;DHT22;10093;48.148;8.542;2022-08-18T16:58:09;19.50;99.90
19862;DHT22;10093;48.148;8.542;2022-08-18T17:00:55;19.60;99.90
19862;DHT22;10093;48.148;8.542;2022-08-18T17:03:39;19.70;99.90
19862;DHT22;10093;48.148;8.542;2022-08-18T17:06:24;19.60;99.90
19862;DHT22;10093;48.148;8.542;2022-08-18T17:08:55;19.60;99.90
19862;DHT22;10093;48.148;8.542;2022-08-18T17:11:22;19.50;99.90
19862;DHT22;10093;48.148;8.542;2022-08-18T17:13:49;19.50;99.90
19862;DHT22;10093;48.148;8.542;2022-08-18T17:16:17;19.30;99.90
19862;DHT22;10093;48.148;8.542;2022-08-18T17:18:44;19.30;99.90
19862;DHT22;10093;48.148;8.542;2022-08-18T17:21:12;19.30;99.90
19862;DHT22;10093;48.148;8.542;2022-08-18T17:23:39;19.30;99.90
19862;DHT22;10093;48.148;8.542;2022-08-18T17:26:14;19.30;99.90
19862;DHT22;10093;48.148;8.542;2022-08-18T17:28:45;19.30;99.90
19862;DHT22;10093;48.148;8.542;2022-08-18T17:31:14;19.20;99.90
19862;DHT22;10093;48.148;8.542;2022-08-18T17:33:43;19.20;99.90
19862;DHT22;10093;48.148;8.542;2022-08-18T17:36:15;19.10;99.90
19862;DHT22;10093;48.148;8.542;2022-08-18T17:38:55;19.20;99.90
19862;DHT22;10093;48.148;8.542;2022-08-18T17:41:23;19.20;99.90
19862;DHT22;10093;48.148;8.542;2022-08-18T17:43:50;19.10;99.90
19862;DHT22;10093;48.148;8.542;2022-08-18T17:46:28;19.00;99.90
19862;DHT22;10093;48.148;8.542;2022-08-18T17:49:02;18.90;99.90
19862;DHT22;10093;48.148;8.542;2022-08-18T17:51:35;18.80;99.90
19862;DHT22;10093;48.148;8.542;2022-08-18T17:54:32;19.00;99.90
19862;DHT22;10093;48.148;8.542;2022-08-18T17:57:14;19.00;99.90